Latest Weather Observations for Mackay Airport

IDQ60801

Issued at 10:35 am EST Tuesday 16 September 2014 (issued every 30 minutes, with the page automatically refreshed every 10 minutes)

About weather observations | Map of weather stations | Latest weather observations for QLD | Other Formats
Station Details ID: 033045 Name: MACKAY AERO Lat: -21.17 Lon: 149.18 Height: 4.7 m
Data from the previous 72 hours. | See also: Recent months at Mackay Airport
Date/Time
EST
Temp
°C
App
Temp
°C
Dew
Point
Rel
Hum
%
Delta-T
°C
Wind Press
QNH
hPa
Press
MSL
hPa
Rain
since 9 am
mm
Dir
 
Spd
km/h
Gust
km/h
Spd
kts
Gust
kts
16/10:30am 24.0 22.6 13.5 52 6.1 ESE 13 17 7 9 1018.3 1018.3 0.0
16/10:00am 23.4 22.6 14.1 56 5.4 ESE 11 19 6 10 1018.6 1018.6 0.0
16/09:30am 22.6 23.3 16.2 67 3.9 SW 7 11 4 6 1018.8 1018.8 0.0
16/09:00am 21.7 22.7 16.9 74 2.9 SW 7 13 4 7 1018.9 1018.9 0.0
16/08:30am 20.2 20.5 17.0 82 1.9 SW 11 15 6 8 1019.0 1019.0 0.0
16/08:00am 17.8 18.0 15.8 88 1.2 WSW 9 13 5 7 1019.0 1019.0 0.0
16/07:30am 16.4 16.4 15.3 93 0.6 W 9 13 5 7 1018.4 1018.4 0.0
16/07:00am 14.6 14.2 14.1 97 0.3 WSW 9 11 5 6 1018.1 1018.1 0.0
16/06:30am 13.2 12.8 12.9 98 0.2 WSW 7 9 4 5 1017.8 1017.8 0.0
16/06:20am 12.7 12.1 12.4 98 0.2 WSW 7 9 4 5 1017.7 1017.7 0.0
16/06:00am 12.2 11.5 11.9 98 0.2 WSW 7 9 4 5 1017.4 1017.4 0.0
16/05:42am 12.0 11.1 11.5 97 0.3 WSW 7 9 4 5 1017.5 1017.5 0.0
16/05:30am 12.6 12.0 12.3 98 0.2 WSW 7 9 4 5 1017.5 1017.5 0.0
16/05:18am 12.9 12.4 12.6 98 0.2 WSW 7 9 4 5 1017.3 1017.3 0.0
16/05:00am 12.4 11.7 11.9 97 0.3 W 7 9 4 5 1017.2 1017.2 0.0
16/04:30am 12.6 11.9 12.1 97 0.3 W 7 9 4 5 1016.8 1016.8 0.0
16/04:27am 13.0 12.5 12.5 97 0.3 W 7 9 4 5 1016.7 1016.7 0.0
16/04:09am 12.9 12.3 12.4 97 0.3 W 7 7 4 4 1016.7 1016.7 0.0
16/04:05am 13.1 12.6 12.6 97 0.3 W 7 9 4 5 1016.6 1016.6 0.0
16/04:00am 13.4 13.0 12.9 97 0.3 W 7 9 4 5 1016.6 1016.6 0.0
16/03:32am 13.3 12.8 12.8 97 0.3 W 7 7 4 4 1016.5 1016.5 0.0
16/03:30am 13.3 12.8 12.7 96 0.3 W 7 9 4 5 1016.5 1016.5 0.0
16/03:00am 14.2 14.0 13.7 97 0.3 W 7 9 4 5 1016.5 1016.5 0.0
16/02:30am 14.3 13.8 13.8 97 0.3 W 9 11 5 6 1016.5 1016.5 0.0
16/02:23am 13.6 12.9 13.1 97 0.3 W 9 11 5 6 1016.4 1016.4 0.0
16/02:10am 14.2 14.0 13.7 97 0.3 W 7 9 4 5 1016.5 1016.5 0.0
16/02:00am 14.5 14.4 14.0 97 0.3 W 7 7 4 4 1016.5 1016.5 0.0
16/01:52am 13.9 13.8 13.4 97 0.3 W 6 7 3 4 1016.6 1016.6 0.0
16/01:30am 14.0 13.9 13.4 96 0.3 W 6 6 3 3 1016.9 1016.9 0.0
16/01:28am 14.1 14.1 13.5 96 0.3 W 6 7 3 4 1016.9 1016.9 0.0
16/01:00am 14.1 14.1 13.5 96 0.3 WSW 6 9 3 5 1017.1 1017.1 0.0
16/12:30am 14.2 13.6 13.6 96 0.3 WSW 9 11 5 6 1017.1 1017.1 0.0
16/12:00am 15.0 15.3 14.4 96 0.3 W 6 9 3 5 1017.3 1017.3 0.0
 
Date/Time
EST
Temp
°C
App
Temp
°C
Dew
Point
Rel
Hum
%
Delta-T
°C
Wind Press
QNH
hPa
Press
MSL
hPa
Rain
since 9 am
mm
Dir
 
Spd
km/h
Gust
km/h
Spd
kts
Gust
kts
15/11:30pm 14.7 14.7 13.7 94 0.6 W 6 7 3 4 1017.3 1017.3 0.0
15/11:00pm 15.6 15.4 14.8 95 0.5 W 9 11 5 6 1017.4 1017.4 0.0
15/10:30pm 15.6 15.4 14.6 94 0.6 SW 9 11 5 6 1017.4 1017.4 0.0
15/10:00pm 15.7 15.1 14.6 93 0.6 SW 11 11 6 6 1017.5 1017.5 0.0
15/09:30pm 17.5 17.5 15.3 87 1.3 S 9 9 5 5 1017.7 1017.7 0.0
15/09:00pm 19.5 19.3 15.6 78 2.3 E 11 13 6 7 1017.7 1017.7 0.0
15/08:30pm 19.8 19.3 15.9 78 2.3 E 13 15 7 8 1017.5 1017.5 0.0
15/08:00pm 19.9 19.1 16.0 78 2.3 E 15 17 8 9 1017.2 1017.2 0.0
15/07:30pm 20.3 19.0 15.9 76 2.6 E 17 20 9 11 1017.0 1017.0 0.0
15/07:00pm 20.4 19.4 16.6 79 2.3 E 17 20 9 11 1016.7 1016.7 0.0
15/06:30pm 20.5 19.3 16.1 76 2.6 E 17 22 9 12 1016.4 1016.4 0.0
15/06:00pm 20.7 19.8 16.9 79 2.3 E 17 22 9 12 1016.1 1016.1 0.0
15/05:30pm 21.5 20.6 16.9 75 2.8 E 17 22 9 12 1016.0 1016.0 0.0
15/05:00pm 22.1 20.5 16.6 71 3.3 E 20 24 11 13 1015.8 1015.8 0.0
15/04:30pm 22.8 20.9 16.6 68 3.8 E 22 28 12 15 1015.5 1015.5 0.0
15/04:00pm 23.2 20.5 16.7 67 4.0 ESE 26 30 14 16 1015.3 1015.3 0.0
15/03:30pm 23.1 21.0 17.1 69 3.7 ESE 24 30 13 16 1015.3 1015.3 0.0
15/03:00pm 23.6 21.4 17.8 70 3.6 ESE 26 30 14 16 1015.3 1015.3 0.0
15/02:30pm 23.5 21.6 17.7 70 3.6 ESE 24 30 13 16 1015.4 1015.4 0.0
15/02:00pm 23.5 21.6 17.7 70 3.6 ESE 24 28 13 15 1015.7 1015.7 0.0
15/01:30pm 24.3 22.6 18.0 68 4.0 ESE 24 28 13 15 1016.1 1016.1 0.0
15/01:00pm 23.9 21.9 16.4 63 4.6 ESE 22 28 12 15 1016.3 1016.3 0.0
15/12:30pm 24.5 22.5 17.5 65 4.4 ESE 24 30 13 16 1016.6 1016.6 0.0
15/12:00pm 23.9 21.9 17.4 67 4.0 ESE 24 30 13 16 1017.1 1017.1 0.0
15/11:30am 24.0 22.3 18.0 69 3.8 SE 24 32 13 17 1017.4 1017.4 0.0
15/11:00am 23.5 21.6 17.7 70 3.6 SE 24 33 13 18 1018.2 1018.2 0.0
15/10:30am 23.7 21.7 17.4 68 3.9 SE 24 32 13 17 1018.6 1018.6 0.0
15/10:00am 23.8 21.8 17.5 68 3.9 SE 24 28 13 15 1019.0 1019.0 0.0
15/09:30am 22.7 20.6 17.2 71 3.4 SE 24 30 13 16 1019.1 1019.1 0.0
15/09:00am 22.7 21.0 17.2 71 3.4 SE 22 30 12 16 1019.2 1019.2 0.0
15/08:30am 22.4 21.3 17.8 75 2.9 SSE 20 26 11 14 1019.1 1019.1 0.0
15/08:00am 21.3 20.8 17.7 80 2.2 S 17 22 9 12 1019.1 1019.1 0.0
15/07:30am 19.0 19.0 17.1 89 1.2 S 13 17 7 9 1018.8 1018.8 0.0
15/07:00am 17.1 17.6 16.5 96 0.4 SSW 9 11 5 6 1018.5 1018.5 0.0
15/06:30am 15.4 14.9 14.9 97 0.3 SSW 11 11 6 6 1018.4 1018.4 0.0
15/06:00am 14.9 14.2 14.3 96 0.3 SSW 11 13 6 7 1018.1 1018.1 0.0
15/05:30am 14.7 13.9 14.1 96 0.3 SW 11 13 6 7 1017.8 1017.8 0.0
15/05:00am 14.9 14.4 13.9 94 0.6 SW 9 13 5 7 1017.7 1017.7 0.0
15/04:30am 15.8 15.3 15.0 95 0.5 WSW 11 11 6 6 1017.6 1017.6 0.0
15/04:00am 15.9 16.2 15.1 95 0.5 SSW 7 11 4 6 1017.4 1017.4 0.0
15/03:30am 15.8 15.3 14.8 94 0.6 SSW 11 13 6 7 1017.3 1017.3 0.0
15/03:00am 16.4 16.1 15.4 94 0.6 SSW 11 13 6 7 1017.4 1017.4 0.0
15/02:30am 16.4 16.0 15.3 93 0.6 SSW 11 13 6 7 1017.6 1017.6 0.0
15/02:00am 17.3 17.4 15.5 89 1.1 S 9 9 5 5 1017.7 1017.7 0.0
15/01:30am 17.9 17.8 16.1 89 1.1 S 11 13 6 7 1018.0 1018.0 0.0
15/01:00am 18.1 17.7 16.3 89 1.1 S 13 15 7 8 1018.1 1018.1 0.0
15/12:30am 18.3 18.4 16.5 89 1.1 SSW 11 15 6 8 1018.5 1018.5 0.0
15/12:00am 18.4 18.5 16.6 89 1.1 SSW 11 13 6 7 1018.7 1018.7 0.0
 
Date/Time
EST
Temp
°C
App
Temp
°C
Dew
Point
Rel
Hum
%
Delta-T
°C
Wind Press
QNH
hPa
Press
MSL
hPa
Rain
since 9 am
mm
Dir
 
Spd
km/h
Gust
km/h
Spd
kts
Gust
kts
14/11:30pm 18.7 19.0 16.1 85 1.5 S 9 13 5 7 1019.1 1019.1 0.0
14/11:00pm 20.6 18.9 17.2 81 2.1 ESE 22 28 12 15 1019.1 1019.1 0.0
14/10:30pm 20.9 18.7 16.9 78 2.4 SE 24 30 13 16 1019.0 1019.0 0.0
14/10:00pm 21.3 19.8 17.7 80 2.2 SE 22 32 12 17 1018.8 1018.8 0.0
14/09:30pm 21.0 19.4 17.4 80 2.2 ESE 22 28 12 15 1018.6 1018.6 0.0
14/09:00pm 21.1 19.1 17.5 80 2.2 ESE 24 30 13 16 1018.8 1018.8 0.0
14/08:30pm 21.1 19.2 17.7 81 2.1 ESE 24 32 13 17 1018.7 1018.7 0.0
14/08:00pm 21.0 18.8 17.0 78 2.4 ESE 24 30 13 16 1018.5 1018.5 0.0
14/07:30pm 20.9 18.9 17.3 80 2.2 ESE 24 32 13 17 1018.3 1018.3 0.0
14/07:00pm 21.1 18.5 16.9 77 2.6 ESE 26 33 14 18 1018.1 1018.1 0.0
14/06:30pm 21.1 18.8 16.7 76 2.7 ESE 24 30 13 16 1017.9 1017.9 0.0
14/06:00pm 21.3 19.5 16.9 76 2.7 SE 22 30 12 16 1017.7 1017.7 0.0
14/05:30pm 21.9 19.2 16.6 72 3.2 SE 26 32 14 17 1017.7 1017.7 0.0
14/05:00pm 22.7 19.3 15.8 65 4.1 SE 28 35 15 19 1017.5 1017.5 0.0
14/04:30pm 23.2 20.0 16.3 65 4.2 SE 28 37 15 20 1017.1 1017.1 0.0
14/04:00pm 23.7 19.4 16.0 62 4.7 SE 33 41 18 22 1016.9 1016.9 0.0
14/03:30pm 23.9 19.9 16.2 62 4.7 SE 32 43 17 23 1016.9 1016.9 0.0
14/03:00pm 24.3 19.8 16.3 61 4.9 SE 35 44 19 24 1017.1 1017.1 0.0
14/02:30pm 24.7 20.1 16.2 59 5.2 SE 35 46 19 25 1017.2 1017.2 0.0
14/02:00pm 24.9 21.4 16.6 60 5.1 SE 30 37 16 20 1017.6 1017.6 0.0
14/01:30pm 24.2 19.6 15.1 56 5.4 SE 33 39 18 21 1017.9 1017.9 0.0
14/01:00pm 24.2 20.3 15.4 58 5.3 SE 30 35 16 19 1018.5 1018.5 0.0
14/12:30pm 24.1 20.0 15.9 60 5.0 SE 32 39 17 21 1018.8 1018.8 0.0
14/12:00pm 24.2 20.1 15.9 59 5.0 SE 32 39 17 21 1019.2 1019.2 0.0
14/11:30am 24.6 20.8 16.8 62 4.8 SE 32 41 17 22 1019.4 1019.4 0.0
14/11:00am 23.8 20.8 16.8 65 4.3 SE 28 35 15 19 1019.7 1019.7 0.0
14/10:30am 23.2 19.4 15.8 63 4.5 SE 30 39 16 21 1019.9 1019.9 0.0
14/10:00am 23.8 20.4 16.8 65 4.3 SE 30 37 16 20 1019.9 1019.9 0.0
14/09:30am 22.2 19.7 16.2 69 3.6 SSE 24 32 13 17 1020.0 1020.0 0.0
14/09:00am 21.9 19.3 16.0 69 3.5 SSE 24 32 13 17 1019.9 1019.9 0.0
14/08:30am 21.2 19.1 16.2 73 3.0 SSE 22 30 12 16 1019.8 1019.8 0.0
14/08:00am 20.9 19.4 16.7 77 2.5 S 20 28 11 15 1019.7 1019.7 0.0
14/07:30am 19.4 17.8 16.1 81 2.0 S 19 24 10 13 1019.4 1019.4 0.0
14/07:00am 18.4 17.2 16.0 86 1.4 S 17 24 9 13 1019.1 1019.1 0.0
14/06:30am 17.5 16.2 15.8 90 1.0 S 17 24 9 13 1018.6 1018.6 0.0
14/06:00am 16.5 15.9 15.7 95 0.5 S 13 17 7 9 1018.5 1018.5 0.0
14/05:30am 16.0 14.8 15.0 94 0.6 SSW 15 17 8 9 1018.3 1018.3 0.0
14/05:00am 16.5 15.4 15.2 92 0.8 S 15 19 8 10 1018.2 1018.2 0.0
14/04:30am 16.6 15.1 15.3 92 0.8 S 17 20 9 11 1018.1 1018.1 0.0
14/04:00am 16.2 15.4 15.1 93 0.6 SSW 13 17 7 9 1018.1 1018.1 0.0
14/03:30am 16.1 15.3 15.0 93 0.6 S 13 17 7 9 1018.2 1018.2 0.0
14/03:00am 15.1 14.3 14.1 94 0.6 SSW 11 13 6 7 1018.4 1018.4 0.0
14/02:30am 15.2 14.8 14.2 94 0.6 SSW 9 11 5 6 1018.8 1018.8 0.0
14/02:00am 15.7 15.1 14.7 94 0.6 SW 11 13 6 7 1019.1 1019.1 0.0
14/01:30am 15.8 14.9 14.8 94 0.6 SW 13 15 7 8 1019.5 1019.5 0.0
14/01:00am 15.7 15.1 14.7 94 0.6 SSW 11 13 6 7 1019.8 1019.8 0.0
14/12:30am 16.1 15.6 15.0 93 0.6 SSW 11 13 6 7 1020.1 1020.1 0.0
14/12:00am 17.6 17.1 15.9 90 1.0 S 13 15 7 8 1020.3 1020.3 0.0
 
Date/Time
EST
Temp
°C
App
Temp
°C
Dew
Point
Rel
Hum
%
Delta-T
°C
Wind Press
QNH
hPa
Press
MSL
hPa
Rain
since 9 am
mm
Dir
 
Spd
km/h
Gust
km/h
Spd
kts
Gust
kts
13/11:30pm 18.1 17.7 16.3 89 1.1 S 13 15 7 8 1020.5 1020.5 0.0
13/11:00pm 17.9 17.5 15.2 84 1.6 S 11 15 6 8 1020.5 1020.5 0.0
13/10:30pm 20.2 18.6 16.4 79 2.3 SE 20 28 11 15 1020.6 1020.6 0.0
13/10:00pm 20.4 18.1 16.6 79 2.3 SE 24 30 13 16 1020.6 1020.6 0.0
13/09:30pm 20.6 18.2 16.4 77 2.5 SE 24 32 13 17 1020.8 1020.8 0.0
13/09:00pm 20.6 17.6 16.8 79 2.3 SE 28 35 15 19 1020.7 1020.7 0.0
13/08:30pm 20.7 18.3 17.3 81 2.1 SE 26 33 14 18 1020.4 1020.4 0.0
13/08:00pm 20.8 18.0 17.2 80 2.2 SE 28 33 15 18 1020.2 1020.2 0.0
13/07:30pm 20.9 17.9 16.9 78 2.4 ESE 28 37 15 20 1019.9 1019.9 0.0
13/07:00pm 20.9 18.9 17.3 80 2.2 SE 24 33 13 18 1019.9 1019.9 0.0
13/06:30pm 20.8 18.4 17.4 81 2.1 SE 26 32 14 17 1019.4 1019.4 0.0
13/06:00pm 20.9 18.4 17.1 79 2.3 SE 26 33 14 18 1019.2 1019.2 0.0
13/05:30pm 21.5 18.8 17.5 78 2.5 SE 28 32 15 17 1019.0 1019.0 0.0
13/05:00pm 22.1 19.9 17.0 73 3.1 SE 24 30 13 16 1018.8 1018.8 0.0
13/04:30pm 22.5 19.9 16.8 70 3.5 SE 26 33 14 18 1018.8 1018.8 0.0
13/04:00pm 23.4 20.7 17.6 70 3.6 SE 28 37 15 20 1018.6 1018.6 0.0
13/03:30pm 23.1 19.7 17.8 72 3.3 SE 32 39 17 21 1018.6 1018.6 0.0
13/03:00pm 22.8 19.9 18.8 78 2.5 SE 32 39 17 21 1018.7 1018.7 0.0
13/02:30pm 22.9 19.8 17.6 72 3.3 ESE 30 37 16 20 1018.9 1018.9 0.0
13/02:00pm 25.1 22.2 19.2 70 3.8 ESE 33 43 18 23 1019.2 1019.2 0.0
13/01:30pm 24.6 20.9 18.3 68 4.0 ESE 35 43 19 23 1019.3 1019.3 0.0
13/01:01pm 24.6 21.8 19.0 71 3.6 ESE 32 41 17 22 1019.5 1019.5 0.0
13/01:00pm 24.6 21.8 19.0 71 3.6 ESE 32 41 17 22 1019.5 1019.5 0.0
13/12:48pm 24.9 21.9 19.0 69 3.8 ESE 33 41 18 22 1019.4 1019.4 0.0
13/12:30pm 25.0 22.4 19.4 71 3.6 ESE 32 39 17 21 1019.6 1019.6 0.0
13/12:00pm 24.9 22.2 19.3 71 3.6 ESE 32 39 17 21 1020.0 1020.0 0.0
13/11:30am 24.8 22.5 19.4 72 3.5 ESE 30 37 16 20 1020.2 1020.2 0.0
13/11:00am 23.9 20.8 18.5 72 3.4 ESE 32 37 17 20 1020.8 1020.8 0.0

Other Formats:

Comma delimited format used in spreadsheet applications
http://www.bom.gov.au/fwo/IDQ60801/IDQ60801.95367.axf

JavaScript Object Notation format (JSON) in row-major order
http://www.bom.gov.au/fwo/IDQ60801/IDQ60801.95367.json